Time;durP1;ratioP1;P1;durP2;ratioP2;P2;SDS_P1;SDS_P2;PMS_P1;PMS_P2;Temp;Humidity;BMP_temperature;BMP_pressure;BME280_temperature;BME280_humidity;BME280_pressure;Samples;Min_cycle;Max_cycle;Signal;HPM_P1;HPM_P2
2023/04/02 00:00:10;;;;;;;0.43;0.40;;;;;;;8.26;100.00;97308.63;5056614;28;20205;-75
2023/04/02 00:03:03;;;;;;;0.90;0.40;;;;;;;8.24;100.00;97305.41;5056441;28;20228;-75
2023/04/02 00:05:50;;;;;;;0.90;0.50;;;;;;;8.24;100.00;97310.69;5057097;28;20220;-75
2023/04/02 00:08:28;;;;;;;0.80;0.53;;;;;;;8.25;100.00;97312.31;5056689;28;20193;-75
2023/04/02 00:11:01;;;;;;;0.30;0.30;;;;;;;8.20;100.00;97315.59;5056366;28;20222;-75
2023/04/02 00:13:40;;;;;;;0.93;0.50;;;;;;;8.24;100.00;97310.69;5056564;28;20236;-75
2023/04/02 00:16:13;;;;;;;1.13;0.40;;;;;;;8.20;100.00;97315.59;5056354;28;20189;-75
2023/04/02 00:18:53;;;;;;;0.50;0.50;;;;;;;8.18;100.00;97322.94;5056344;28;20194;-74
2023/04/02 00:21:22;;;;;;;0.40;0.40;;;;;;;8.22;100.00;97318.88;5056291;28;20539;-74
2023/04/02 00:23:49;;;;;;;0.30;0.30;;;;;;;8.21;100.00;97313.78;5056074;28;20221;-74
2023/04/02 00:26:34;;;;;;;0.77;0.50;;;;;;;8.22;100.00;97326.81;5056162;28;20289;-74
2023/04/02 00:29:02;;;;;;;0.43;0.30;;;;;;;8.16;100.00;97322.38;5055917;28;20189;-75
2023/04/02 00:31:29;;;;;;;0.53;0.43;;;;;;;8.21;100.00;97329.66;5055601;28;20209;-75
2023/04/02 00:33:58;;;;;;;1.13;0.40;;;;;;;8.21;100.00;97321.72;5055622;28;20323;-75
2023/04/02 00:36:26;;;;;;;0.73;0.40;;;;;;;8.22;100.00;97334.75;5054765;28;20205;-75
2023/04/02 00:38:55;;;;;;;1.70;0.30;;;;;;;8.24;100.00;97334.53;5054782;28;20252;-74
2023/04/02 00:41:28;;;;;;;0.40;0.40;;;;;;;8.26;100.00;97335.09;5054781;28;20205;-75
2023/04/02 00:43:56;;;;;;;0.57;0.33;;;;;;;8.27;100.00;97337.53;5055409;28;20279;-75
2023/04/02 00:46:30;;;;;;;0.50;0.50;;;;;;;8.25;100.00;97336.97;5055668;28;20209;-75
2023/04/02 00:49:09;;;;;;;0.73;0.47;;;;;;;8.29;100.00;97342.63;5054619;28;20233;-75
2023/04/02 00:51:40;;;;;;;0.80;0.40;;;;;;;8.25;100.00;97336.13;5055388;28;20648;-75
2023/04/02 00:54:14;;;;;;;0.40;0.30;;;;;;;8.26;100.00;97340.41;5037776;28;20222;-75
2023/04/02 00:56:44;;;;;;;1.07;0.67;;;;;;;8.24;100.00;97327.38;5054444;28;20244;-75
2023/04/02 00:59:20;;;;;;;0.43;0.43;;;;;;;8.27;100.00;97342.00;5055120;28;20621;-75
2023/04/02 01:01:53;;;;;;;0.67;0.43;;;;;;;8.26;100.00;97335.09;5055005;28;20205;-74
2023/04/02 01:04:35;;;;;;;0.80;0.40;;;;;;;8.26;100.00;97337.75;5055171;28;20676;-75
2023/04/02 01:07:09;;;;;;;0.50;0.40;;;;;;;8.26;100.00;97340.41;5054992;28;20189;-75
2023/04/02 01:10:09;;;;;;;2.57;0.40;;;;;;;8.31;100.00;97337.91;5054063;28;20655;-75
2023/04/02 01:12:48;;;;;;;0.73;0.43;;;;;;;8.26;100.00;97340.41;5024335;28;20229;-75
2023/04/02 01:15:49;;;;;;;1.17;0.60;;;;;;;8.28;100.00;97355.03;5055499;28;20221;-74
2023/04/02 01:18:30;;;;;;;0.43;0.40;;;;;;;8.28;100.00;97344.44;5025106;28;20209;-74
2023/04/02 01:21:05;;;;;;;0.50;0.40;;;;;;;8.28;100.00;97347.09;5053860;28;20189;-74
2023/04/02 01:23:51;;;;;;;1.13;0.80;;;;;;;8.34;100.00;97350.69;5053323;28;20224;-74
2023/04/02 01:26:48;;;;;;;0.67;0.40;;;;;;;8.34;100.00;97358.66;5054712;28;20189;-74
2023/04/02 01:29:30;;;;;;;0.33;0.33;;;;;;;8.36;100.00;97354.75;5054897;28;20228;-75
2023/04/02 01:32:01;;;;;;;0.60;0.30;;;;;;;8.34;100.00;97354.16;5054630;28;20766;-74
2023/04/02 01:34:28;;;;;;;1.00;0.50;;;;;;;8.37;100.00;97350.28;5054622;28;20197;-74
2023/04/02 01:37:21;;;;;;;0.63;0.50;;;;;;;8.43;100.00;97349.38;5054769;28;20209;-74
2023/04/02 01:40:22;;;;;;;1.43;0.40;;;;;;;8.43;100.00;97358.13;5053519;28;20207;-75
2023/04/02 01:43:07;;;;;;;0.40;0.40;;;;;;;8.50;100.00;97350.09;5054537;28;20247;-74
2023/04/02 01:45:34;;;;;;;0.50;0.50;;;;;;;8.48;100.00;97357.47;5054619;28;20198;-74
2023/04/02 01:48:05;;;;;;;0.57;0.40;;;;;;;8.47;100.00;97356.63;5054518;28;20205;-75
2023/04/02 01:50:38;;;;;;;0.37;0.37;;;;;;;8.53;100.00;97365.53;5054447;28;20213;-74
2023/04/02 01:53:10;;;;;;;0.93;0.37;;;;;;;8.54;100.00;97369.81;5054177;28;20565;-75
2023/04/02 01:55:47;;;;;;;0.50;0.50;;;;;;;8.53;100.00;97371.66;5054365;28;20193;-74
2023/04/02 01:58:18;;;;;;;1.00;0.40;;;;;;;8.58;100.00;97370.97;5055030;28;20196;-74
2023/04/02 02:00:53;;;;;;;0.73;0.40;;;;;;;8.59;100.00;97369.94;5054435;28;20553;-74
2023/04/02 02:03:20;;;;;;;0.30;0.30;;;;;;;8.54;100.00;97375.91;5053986;28;20711;-74
2023/04/02 02:05:46;;;;;;;1.07;0.50;;;;;;;8.59;100.00;97372.59;5054285;28;20247;-74
2023/04/02 02:08:34;;;;;;;0.60;0.40;;;;;;;8.55;100.00;97380.19;5053644;28;20703;-75
2023/04/02 02:11:02;;;;;;;0.97;0.40;;;;;;;8.55;100.00;97374.09;5054102;28;20221;-75
2023/04/02 02:13:28;;;;;;;0.53;0.33;;;;;;;8.56;100.00;97378.34;5054580;28;20225;-75
2023/04/02 02:16:00;;;;;;;0.97;0.50;;;;;;;8.56;100.00;97371.19;5054051;28;20212;-75
2023/04/02 02:18:28;;;;;;;1.30;0.40;;;;;;;8.66;100.00;97378.63;5053994;28;20629;-74
2023/04/02 02:20:57;;;;;;;0.60;0.30;;;;;;;8.56;100.00;97384.44;5053579;28;20202;-74
2023/04/02 02:23:25;;;;;;;0.30;0.30;;;;;;;8.57;100.00;97380.78;5053831;28;20708;-74
2023/04/02 02:25:54;;;;;;;0.93;0.37;;;;;;;8.60;100.00;97390.13;5052769;28;20205;-74
2023/04/02 02:28:31;;;;;;;0.50;0.50;;;;;;;8.58;100.00;97387.69;5054139;28;20205;-75
2023/04/02 02:31:16;;;;;;;1.20;0.50;;;;;;;8.65;100.00;97387.63;5053445;28;20316;-74
2023/04/02 02:33:48;;;;;;;0.37;0.30;;;;;;;8.60;100.00;97390.91;5053431;28;20236;-74
2023/04/02 02:36:19;;;;;;;0.50;0.50;;;;;;;8.57;100.00;97399.34;5052618;28;20193;-74
2023/04/02 02:38:53;;;;;;;0.73;0.40;;;;;;;8.62;100.00;97402.13;5053670;28;20284;-74
2023/04/02 02:41:30;;;;;;;1.40;0.50;;;;;;;8.57;100.00;97403.81;5053417;28;20185;-74
2023/04/02 02:44:03;;;;;;;0.43;0.40;;;;;;;8.54;100.00;97407.72;5053568;28;20228;-74
2023/04/02 02:46:32;;;;;;;0.30;0.30;;;;;;;8.58;100.00;97413.38;5052351;28;20708;-74
2023/04/02 02:49:03;;;;;;;1.23;0.40;;;;;;;8.53;100.00;97411.41;5053435;28;20210;-74
2023/04/02 02:51:40;;;;;;;0.73;0.50;;;;;;;8.53;100.00;97411.41;5053122;28;20239;-74
2023/04/02 02:54:07;;;;;;;1.13;0.40;;;;;;;8.54;100.00;97418.31;5053292;28;20540;-74
2023/04/02 02:56:38;;;;;;;0.80;0.47;;;;;;;8.51;100.00;97424.03;5053372;28;20271;-74
2023/04/02 02:59:10;;;;;;;0.40;0.30;;;;;;;8.52;100.00;97415.09;5053357;28;20190;-74
2023/04/02 03:01:37;;;;;;;1.27;0.50;;;;;;;8.49;100.00;97418.16;5052975;28;20656;-75
2023/04/02 03:04:03;;;;;;;0.40;0.40;;;;;;;8.54;100.00;97412.19;5053204;28;20221;-74
2023/04/02 03:06:31;;;;;;;0.50;0.40;;;;;;;8.55;100.00;97417.28;5053080;28;20209;-74
2023/04/02 03:09:12;;;;;;;0.50;0.40;;;;;;;8.59;100.00;97421.09;5052702;28;20288;-75
2023/04/02 03:11:59;;;;;;;0.37;0.33;;;;;;;8.56;100.00;97426.03;5053088;28;20213;-74
2023/04/02 03:14:57;;;;;;;0.43;0.40;;;;;;;8.54;100.00;97431.56;5053072;28;20212;-75
2023/04/02 03:17:32;;;;;;;0.83;0.40;;;;;;;8.56;100.00;97424.19;5052902;28;20300;-75
2023/04/02 03:20:10;;;;;;;0.67;0.47;;;;;;;8.58;100.00;97437.22;5053190;28;20189;-75
2023/04/02 03:23:03;;;;;;;1.30;0.40;;;;;;;8.54;100.00;97441.31;5051962;28;20220;-75
2023/04/02 03:25:58;;;;;;;0.80;0.50;;;;;;;8.51;100.00;97431.97;5053111;28;20208;-75
2023/04/02 03:28:32;;;;;;;0.40;0.40;;;;;;;8.51;100.00;97433.84;5052553;28;20664;-75
2023/04/02 03:31:33;;;;;;;1.23;0.40;;;;;;;8.51;100.00;97447.09;5053212;28;20213;-75
2023/04/02 03:34:05;;;;;;;0.43;0.40;;;;;;;8.50;100.00;97442.78;5056832;28;20232;-74
2023/04/02 03:36:42;;;;;;;0.93;0.37;;;;;;;8.47;100.00;97444.03;5057015;28;20192;-75
2023/04/02 03:39:30;;;;;;;0.40;0.40;;;;;;;8.49;100.00;97454.44;5056943;28;20201;-75
2023/04/02 03:42:10;;;;;;;0.50;0.50;;;;;;;8.49;100.00;97459.72;5056727;28;20190;-75
2023/04/02 03:44:47;;;;;;;0.93;0.50;;;;;;;8.42;100.00;97456.34;5055372;28;20190;-75
2023/04/02 03:47:28;;;;;;;0.77;0.40;;;;;;;8.42;100.00;97451.06;5056774;28;20201;-75
2023/04/02 03:50:11;;;;;;;0.37;0.30;;;;;;;8.44;100.00;97457.75;5055316;28;20197;-75
2023/04/02 03:52:39;;;;;;;0.33;0.33;;;;;;;8.45;100.00;97466.50;5056683;28;20310;-75
2023/04/02 03:55:19;;;;;;;0.40;0.40;;;;;;;8.43;100.00;97464.09;5056635;28;20216;-75
2023/04/02 03:58:26;;;;;;;0.40;0.40;;;;;;;8.42;100.00;97461.66;5056805;28;20200;-75
2023/04/02 04:00:59;;;;;;;0.40;0.40;;;;;;;8.42;100.00;97467.75;5056315;28;20201;-75
2023/04/02 04:03:50;;;;;;;1.23;0.30;;;;;;;8.39;100.00;97470.03;5055361;28;20229;-74
2023/04/02 04:06:33;;;;;;;0.73;0.37;;;;;;;8.41;100.00;97465.34;5056212;28;20663;-75
2023/04/02 04:09:25;;;;;;;0.40;0.30;;;;;;;8.42;100.00;97473.03;5056382;28;20209;-75
2023/04/02 04:11:59;;;;;;;0.40;0.30;;;;;;;8.40;100.00;97475.09;5056200;28;20218;-75
2023/04/02 04:14:32;;;;;;;1.33;0.40;;;;;;;8.42;100.00;97474.91;5056338;28;20220;-74
2023/04/02 04:17:28;;;;;;;1.90;0.40;;;;;;;8.44;100.00;97486.06;5056303;28;20209;-74
2023/04/02 04:20:06;;;;;;;2.70;0.40;;;;;;;8.46;100.00;97487.47;5056254;28;20217;-74
2023/04/02 04:22:33;;;;;;;0.60;0.40;;;;;;;8.43;100.00;97489.75;5056163;28;20221;-75
2023/04/02 04:25:17;;;;;;;0.30;0.30;;;;;;;8.43;100.00;97485.28;5055876;28;20703;-74
2023/04/02 04:27:55;;;;;;;0.83;0.40;;;;;;;8.40;100.00;97490.19;5055931;28;20185;-74
2023/04/02 04:30:30;;;;;;;0.33;0.33;;;;;;;8.40;100.00;97495.47;5056650;28;20235;-74
2023/04/02 04:33:00;;;;;;;1.20;0.40;;;;;;;8.40;100.00;97492.81;5037990;28;20240;-75
2023/04/02 04:35:34;;;;;;;0.77;0.40;;;;;;;8.35;100.00;97493.50;5055967;28;20189;-74
2023/04/02 04:38:07;;;;;;;0.33;0.33;;;;;;;8.35;100.00;97509.38;5054740;28;20190;-74
2023/04/02 04:40:38;;;;;;;0.70;0.50;;;;;;;8.38;100.00;97505.50;5055787;28;20292;-74
2023/04/02 04:43:11;;;;;;;0.87;0.40;;;;;;;8.35;100.00;97512.03;5054342;28;20229;-74
2023/04/02 04:45:43;;;;;;;1.17;0.40;;;;;;;8.33;100.00;97514.06;5055474;28;20633;-75
2023/04/02 04:48:20;;;;;;;0.40;0.40;;;;;;;8.33;100.00;97516.72;5055427;28;20205;-75
2023/04/02 04:50:50;;;;;;;0.40;0.40;;;;;;;8.34;100.00;97520.19;5055521;28;20218;-74
2023/04/02 04:53:21;;;;;;;0.83;0.50;;;;;;;8.33;100.00;97526.53;5055429;28;20229;-75
2023/04/02 04:55:50;;;;;;;0.90;0.50;;;;;;;8.31;100.00;97525.91;5055281;28;20185;-75
2023/04/02 04:58:16;;;;;;;0.43;0.40;;;;;;;8.30;100.00;97527.78;5055615;28;20228;-75
2023/04/02 05:01:10;;;;;;;1.10;0.50;;;;;;;8.31;100.00;97533.84;5056065;28;20213;-75
2023/04/02 05:04:09;;;;;;;0.40;0.40;;;;;;;8.30;100.00;97533.06;5054483;28;20308;-75
2023/04/02 05:06:35;;;;;;;0.73;0.30;;;;;;;8.36;100.00;97532.19;5032742;28;20213;-75
2023/04/02 05:09:13;;;;;;;0.37;0.37;;;;;;;8.37;100.00;97544.41;5055290;28;20313;-75
2023/04/02 05:12:30;;;;;;;0.47;0.40;;;;;;;8.34;100.00;97544.03;5055161;28;20209;-75
2023/04/02 05:15:02;;;;;;;0.40;0.40;;;;;;;8.38;100.00;97545.22;5037602;28;20213;-75
2023/04/02 05:17:42;;;;;;;1.90;0.50;;;;;;;8.35;100.00;97545.63;5055703;28;20190;-75
2023/04/02 05:20:25;;;;;;;0.70;0.40;;;;;;;8.35;100.00;97548.28;5037456;28;20189;-75
2023/04/02 05:23:12;;;;;;;0.87;0.50;;;;;;;8.37;100.00;97548.91;5053840;28;20244;-75
2023/04/02 05:25:52;;;;;;;0.40;0.40;;;;;;;8.36;100.00;97547.25;5054710;28;20574;-75
2023/04/02 05:28:31;;;;;;;2.67;0.70;;;;;;;8.37;100.00;97554.19;5053828;28;20193;-75
2023/04/02 05:31:03;;;;;;;1.00;0.40;;;;;;;8.39;100.00;97558.25;5037267;28;20216;-75
2023/04/02 05:33:32;;;;;;;0.73;0.40;;;;;;;8.38;100.00;97569.84;5054086;28;20243;-75
2023/04/02 05:36:01;;;;;;;0.43;0.40;;;;;;;8.41;100.00;97569.44;5053831;28;20205;-75
2023/04/02 05:38:30;;;;;;;0.40;0.40;;;;;;;8.40;100.00;97566.97;5054515;28;20201;-75
2023/04/02 05:41:20;;;;;;;0.60;0.43;;;;;;;8.41;100.00;97569.44;5053217;28;20588;-75
2023/04/02 05:43:48;;;;;;;0.73;0.43;;;;;;;8.45;100.00;97570.63;5053502;28;20589;-75
2023/04/02 05:46:26;;;;;;;0.50;0.40;;;;;;;8.43;100.00;97579.81;5052542;28;20284;-75
2023/04/02 05:48:56;;;;;;;0.40;0.40;;;;;;;8.42;100.00;97576.34;5052556;28;20193;-75
2023/04/02 05:51:31;;;;;;;1.27;0.40;;;;;;;8.43;100.00;97579.81;5053522;28;20217;-75
2023/04/02 05:54:01;;;;;;;0.50;0.43;;;;;;;8.47;100.00;97584.44;5051383;28;20723;-75
2023/04/02 05:56:33;;;;;;;1.13;0.40;;;;;;;8.49;100.00;97581.56;5053255;28;20666;-75
2023/04/02 05:59:34;;;;;;;1.13;0.40;;;;;;;8.52;100.00;97589.09;5054109;28;20189;-75
2023/04/02 06:02:30;;;;;;;0.93;0.50;;;;;;;8.50;100.00;97588.50;5051052;28;20204;-75
2023/04/02 06:05:03;;;;;;;0.40;0.40;;;;;;;8.55;100.00;97591.31;5052352;28;20197;-75
2023/04/02 06:07:35;;;;;;;0.40;0.40;;;;;;;8.58;100.00;97599.66;5053431;28;20200;-75
2023/04/02 06:10:18;;;;;;;0.50;0.50;;;;;;;8.61;100.00;97601.03;5052897;28;20189;-75
2023/04/02 06:12:50;;;;;;;0.60;0.40;;;;;;;8.62;100.00;97608.78;5053142;28;20228;-75
2023/04/02 06:15:19;;;;;;;0.80;0.50;;;;;;;8.67;100.00;97610.75;5053156;28;20602;-75
2023/04/02 06:18:04;;;;;;;0.40;0.40;;;;;;;8.71;100.00;97614.59;5053160;28;20212;-75
2023/04/02 06:20:31;;;;;;;0.40;0.40;;;;;;;8.75;100.00;97615.78;5053202;28;20208;-75
2023/04/02 06:23:17;;;;;;;0.40;0.40;;;;;;;8.73;100.00;97616.00;5053638;28;20232;-75
2023/04/02 06:25:59;;;;;;;0.50;0.50;;;;;;;8.81;100.00;97623.69;5052032;28;20194;-75
2023/04/02 06:28:38;;;;;;;1.33;0.50;;;;;;;8.84;100.00;97628.56;5052823;28;20196;-75
2023/04/02 06:31:10;;;;;;;0.30;0.30;;;;;;;8.91;100.00;97625.84;5052913;28;20207;-75
2023/04/02 06:33:37;;;;;;;0.40;0.40;;;;;;;8.99;100.00;97630.84;4997612;28;1077511;-75
2023/04/02 06:36:04;;;;;;;0.63;0.57;;;;;;;8.96;100.00;97634.75;5053391;28;20679;-75
2023/04/02 06:38:32;;;;;;;34.63;22.90;;;;;;;9.01;100.00;97642.84;5053482;28;20205;-75
2023/04/02 06:41:04;;;;;;;6.10;4.30;;;;;;;9.06;100.00;97647.53;5053285;28;20197;-75
2023/04/02 06:43:36;;;;;;;10.40;7.83;;;;;;;9.04;100.00;97650.38;5036001;28;20225;-75
2023/04/02 06:46:32;;;;;;;4.50;3.70;;;;;;;9.18;100.00;97648.41;5053142;28;20548;-75
2023/04/02 06:49:15;;;;;;;3.27;2.20;;;;;;;9.17;100.00;97649.44;5052804;28;20648;-75
2023/04/02 06:51:43;;;;;;;1.20;1.10;;;;;;;9.16;100.00;97659.25;5052357;28;20283;-75
2023/04/02 06:54:15;;;;;;;0.57;0.57;;;;;;;9.18;100.00;97665.13;5053004;28;20229;-75
2023/04/02 06:56:53;;;;;;;0.97;0.73;;;;;;;9.27;100.00;97668.28;5053516;28;20189;-75
2023/04/02 06:59:20;;;;;;;1.00;0.80;;;;;;;9.23;100.00;97669.78;5053376;28;20208;-75
2023/04/02 07:02:01;;;;;;;1.80;1.20;;;;;;;9.23;100.00;97678.53;5053303;28;20204;-75
2023/04/02 07:04:28;;;;;;;2.03;1.00;;;;;;;9.37;100.00;97684.53;5053095;28;20644;-76
2023/04/02 07:06:54;;;;;;;0.93;0.70;;;;;;;9.32;100.00;97695.00;5051854;28;20676;-75
2023/04/02 07:09:21;;;;;;;1.67;0.80;;;;;;;9.36;100.00;97696.16;5053410;28;20205;-75
2023/04/02 07:11:48;;;;;;;3.93;1.20;;;;;;;9.40;100.00;97700.81;5053067;28;20224;-76
2023/04/02 07:14:14;;;;;;;2.10;1.33;;;;;;;9.44;100.00;97691.41;5053465;28;20215;-75
2023/04/02 07:16:42;;;;;;;1.00;0.90;;;;;;;9.53;100.00;97695.38;5053222;28;20211;-76
2023/04/02 07:19:17;;;;;;;1.63;1.10;;;;;;;9.55;100.00;97695.97;5053182;28;20205;-75
2023/04/02 07:21:43;;;;;;;1.17;0.87;;;;;;;9.55;100.00;97703.13;5053067;28;20197;-75
2023/04/02 07:24:10;;;;;;;1.27;0.80;;;;;;;9.76;100.00;97703.47;5052872;28;20224;-76
2023/04/02 07:26:36;;;;;;;0.60;0.60;;;;;;;9.63;100.00;97710.78;5052753;28;20241;-76
2023/04/02 07:29:03;;;;;;;1.97;0.90;;;;;;;9.84;100.00;97718.28;5053016;28;20312;-76
2023/04/02 07:31:30;;;;;;;2.00;0.70;;;;;;;9.76;100.00;97722.06;5052923;28;20225;-75
2023/04/02 07:33:59;;;;;;;0.73;0.57;;;;;;;9.74;100.00;97720.66;5052901;28;20359;-76
2023/04/02 07:36:26;;;;;;;0.60;0.50;;;;;;;9.77;100.00;97723.69;5053020;28;20300;-75
2023/04/02 07:38:53;;;;;;;0.53;0.53;;;;;;;9.90;100.00;97728.84;5052889;28;20205;-75
2023/04/02 07:41:20;;;;;;;0.93;0.67;;;;;;;9.94;100.00;97737.16;5052717;28;20205;-75
2023/04/02 07:43:47;;;;;;;1.30;0.70;;;;;;;9.92;100.00;97731.28;5052855;28;20225;-76
2023/04/02 07:46:16;;;;;;;1.90;0.80;;;;;;;9.82;100.00;97738.97;5052763;28;20209;-76
2023/04/02 07:48:43;;;;;;;3.33;0.70;;;;;;;9.67;100.00;97743.81;5052811;28;20304;-76
2023/04/02 07:51:22;;;;;;;1.03;0.83;;;;;;;9.63;100.00;97748.75;5052635;28;20239;-76
2023/04/02 07:53:49;;;;;;;1.37;0.90;;;;;;;9.80;100.00;97743.66;5052742;28;20225;-76
2023/04/02 07:56:19;;;;;;;1.30;1.00;;;;;;;9.67;100.00;97752.59;5052569;28;20212;-76
2023/04/02 07:58:46;;;;;;;0.70;0.70;;;;;;;9.62;100.00;97762.22;5052782;28;20201;-76
2023/04/02 08:01:22;;;;;;;1.43;0.70;;;;;;;9.63;100.00;97761.19;5052685;28;20197;-76
2023/04/02 08:03:49;;;;;;;0.80;0.70;;;;;;;9.61;100.00;97763.28;5052371;28;20311;-75
2023/04/02 08:06:16;;;;;;;0.70;0.70;;;;;;;9.65;100.00;97767.13;5052329;28;20220;-76
2023/04/02 08:08:42;;;;;;;0.93;0.70;;;;;;;9.55;100.00;97772.13;5052592;28;20217;-75
2023/04/02 08:11:10;;;;;;;1.00;0.80;;;;;;;9.57;100.00;97775.34;5052578;28;20205;-76
2023/04/02 08:13:36;;;;;;;1.67;0.93;;;;;;;9.57;100.00;97780.66;5052287;28;20619;-75
2023/04/02 08:16:04;;;;;;;1.73;0.97;;;;;;;9.46;100.00;97778.75;5052596;28;20202;-76
2023/04/02 08:18:31;;;;;;;0.83;0.80;;;;;;;9.54;100.00;97786.41;5055077;28;20201;-75
2023/04/02 08:20:57;;;;;;;0.70;0.70;;;;;;;9.59;100.00;97786.56;5056140;28;20209;-76
2023/04/02 08:23:24;;;;;;;0.83;0.83;;;;;;;9.60;100.00;97785.53;5056012;28;20232;-76
2023/04/02 08:25:52;;;;;;;1.40;1.00;;;;;;;9.64;100.00;97794.69;5056066;28;20217;-76
2023/04/02 08:28:19;;;;;;;1.20;0.70;;;;;;;9.66;100.00;97796.09;5055921;28;20292;-75
2023/04/02 08:30:47;;;;;;;0.70;0.70;;;;;;;9.76;100.00;97801.72;5055886;28;20312;-76
2023/04/02 08:33:14;;;;;;;0.70;0.70;;;;;;;9.88;100.00;97799.13;5055708;28;20236;-76
2023/04/02 08:35:41;;;;;;;1.43;1.07;;;;;;;9.77;100.00;97802.53;5055742;28;20292;-76
2023/04/02 08:38:08;;;;;;;3.13;1.00;;;;;;;9.93;100.00;97808.06;5055676;28;20210;-75
2023/04/02 08:40:36;;;;;;;1.03;0.77;;;;;;;9.86;100.00;97817.13;5055747;28;20205;-76
2023/04/02 08:43:28;;;;;;;2.10;0.80;;;;;;;10.21;100.00;97821.66;5055151;28;20720;-76
2023/04/02 08:46:18;;;;;;;1.27;0.70;;;;;;;10.11;100.00;97821.38;5055488;28;20603;-75
2023/04/02 08:48:51;;;;;;;1.20;0.80;;;;;;;9.99;100.00;97823.09;5055636;28;20200;-75
2023/04/02 08:51:45;;;;;;;0.93;0.77;;;;;;;10.21;100.00;97824.31;5055560;28;20189;-75
2023/04/02 08:54:24;;;;;;;1.60;0.80;;;;;;;10.19;100.00;97826.38;5053569;28;20233;-75
2023/04/02 08:57:06;;;;;;;1.53;0.90;;;;;;;10.09;100.00;97833.25;5055574;28;20212;-75
2023/04/02 08:59:38;;;;;;;0.70;0.70;;;;;;;10.25;100.00;97836.13;5055495;28;20193;-75
2023/04/02 09:02:23;;;;;;;1.17;1.00;;;;;;;10.19;100.00;97842.31;5055371;28;20209;-75
2023/04/02 09:04:51;;;;;;;0.90;0.70;;;;;;;10.26;100.00;97842.25;5055281;28;20185;-75
2023/04/02 09:07:17;;;;;;;4.57;1.00;;;;;;;10.44;100.00;97843.06;5037499;28;20205;-75
2023/04/02 09:09:48;;;;;;;1.10;0.80;;;;;;;10.37;100.00;97841.53;5055068;28;20205;-75
2023/04/02 09:12:20;;;;;;;1.03;0.60;;;;;;;10.80;100.00;97853.63;5055210;28;20303;-75
2023/04/02 09:15:17;;;;;;;1.30;0.70;;;;;;;10.82;100.00;97853.41;5054787;28;20771;-76
2023/04/02 09:17:43;;;;;;;0.70;0.57;;;;;;;10.94;99.44;97860.41;5053990;28;20243;-75
2023/04/02 09:20:18;;;;;;;2.47;0.77;;;;;;;11.01;95.35;97860.31;5054974;28;20216;-75
2023/04/02 09:22:47;;;;;;;1.00;0.70;;;;;;;11.03;94.99;97863.53;5054876;28;20232;-75
2023/04/02 09:25:20;;;;;;;1.90;0.60;;;;;;;10.98;95.73;97863.41;5054680;28;20207;-75
2023/04/02 09:27:49;;;;;;;0.83;0.80;;;;;;;10.98;96.52;97865.28;5054615;28;20236;-75
2023/04/02 09:30:47;;;;;;;0.93;0.50;;;;;;;10.93;96.57;97870.47;5053892;28;20209;-75
2023/04/02 09:33:13;;;;;;;1.77;0.60;;;;;;;10.78;97.18;97870.84;5053366;28;20704;-75
2023/04/02 09:35:49;;;;;;;1.10;0.67;;;;;;;11.08;95.43;97883.13;5054632;28;20697;-76
2023/04/02 09:38:23;;;;;;;1.33;0.90;;;;;;;11.01;96.10;97881.59;5054751;28;20204;-76
2023/04/02 09:40:58;;;;;;;0.93;0.70;;;;;;;11.15;96.81;97885.69;5054618;28;20214;-76
2023/04/02 09:43:27;;;;;;;2.00;0.77;;;;;;;10.93;96.96;97890.69;5054570;28;20664;-76
2023/04/02 09:45:59;;;;;;;0.70;0.70;;;;;;;11.19;96.19;97900.97;5054159;28;20218;-75
2023/04/02 09:48:33;;;;;;;0.73;0.60;;;;;;;10.37;100.00;97897.31;5054355;28;20213;-76
2023/04/02 09:51:21;;;;;;;1.23;0.70;;;;;;;10.24;100.00;97906.25;5054442;28;20193;-75
2023/04/02 09:53:51;;;;;;;1.43;0.80;;;;;;;10.06;100.00;97908.06;5054402;28;20228;-75
2023/04/02 09:56:21;;;;;;;1.07;0.80;;;;;;;10.24;100.00;97894.81;5036328;28;20205;-75
2023/04/02 09:59:14;;;;;;;0.60;0.60;;;;;;;10.53;100.00;97902.03;5054053;28;20292;-76
2023/04/02 10:01:44;;;;;;;0.80;0.80;;;;;;;10.94;100.00;97908.28;5054250;28;20194;-75
2023/04/02 10:04:43;;;;;;;0.70;0.70;;;;;;;10.87;100.00;97907.53;5053730;28;20225;-75
2023/04/02 10:07:37;;;;;;;0.97;0.70;;;;;;;11.01;97.61;97913.50;5054102;28;20251;-75
2023/04/02 10:10:21;;;;;;;0.70;0.70;;;;;;;11.07;97.59;97915.25;5054121;28;20388;-75
2023/04/02 10:13:07;;;;;;;1.20;0.90;;;;;;;10.74;98.18;97925.50;5053446;28;20253;-75
2023/04/02 10:15:43;;;;;;;0.83;0.70;;;;;;;11.16;95.87;97924.56;5046536;28;20289;-76
2023/04/02 10:18:29;;;;;;;0.70;0.50;;;;;;;11.15;96.72;97925.59;5052869;28;20285;-75
2023/04/02 10:20:57;;;;;;;1.30;0.83;;;;;;;11.38;94.83;97928.34;5053767;28;20291;-75
2023/04/02 10:23:29;;;;;;;0.60;0.60;;;;;;;11.20;94.92;97933.72;5053444;28;20256;-75
2023/04/02 10:26:17;;;;;;;0.50;0.50;;;;;;;11.01;98.69;97926.81;5054572;28;20191;-75
2023/04/02 10:29:05;;;;;;;0.97;0.63;;;;;;;11.50;94.29;97939.84;5053643;28;20219;-75
2023/04/02 10:31:39;;;;;;;0.67;0.67;;;;;;;11.67;93.90;97932.84;5053275;28;20634;-75
2023/04/02 10:34:16;;;;;;;0.60;0.60;;;;;;;11.53;93.72;97935.91;5053175;28;20718;-75
2023/04/02 10:37:16;;;;;;;0.83;0.60;;;;;;;11.47;96.22;97937.63;5053328;28;20662;-75
2023/04/02 10:39:49;;;;;;;0.50;0.50;;;;;;;11.26;94.62;97940.00;5053161;28;20271;-75
2023/04/02 10:42:26;;;;;;;1.13;0.50;;;;;;;11.55;92.43;97941.81;5053255;28;20224;-75
2023/04/02 10:45:04;;;;;;;0.60;0.60;;;;;;;11.20;96.15;97949.69;5052077;28;20283;-75
2023/04/02 10:47:53;;;;;;;0.50;0.50;;;;;;;11.35;97.45;97957.25;5053384;28;20190;-75
2023/04/02 10:50:28;;;;;;;0.47;0.47;;;;;;;11.74;93.02;97959.38;5051800;28;20185;-75
2023/04/02 10:53:17;;;;;;;0.57;0.50;;;;;;;11.34;91.81;97953.78;5053013;28;20655;-75
2023/04/02 10:55:50;;;;;;;0.47;0.43;;;;;;;11.23;93.69;97955.34;5052838;28;20312;-74
2023/04/02 10:58:23;;;;;;;0.40;0.40;;;;;;;11.51;91.41;97962.75;5053088;28;20198;-75
2023/04/02 11:00:52;;;;;;;0.57;0.57;;;;;;;11.19;93.58;97969.34;5053027;28;20205;-75
2023/04/02 11:03:30;;;;;;;1.23;0.60;;;;;;;11.59;96.87;97965.09;5051833;28;20318;-75
2023/04/02 11:06:05;;;;;;;0.50;0.50;;;;;;;11.87;92.09;97978.63;5052128;28;20201;-75
2023/04/02 11:08:41;;;;;;;0.40;0.40;;;;;;;11.66;89.81;97976.47;5053553;28;20200;-75
2023/04/02 11:11:18;;;;;;;0.40;0.40;;;;;;;11.75;89.06;97975.13;5053890;28;20203;-75
2023/04/02 11:13:55;;;;;;;0.37;0.37;;;;;;;11.75;89.01;97977.78;5051212;28;20231;-75
2023/04/02 11:16:22;;;;;;;0.50;0.50;;;;;;;11.87;88.63;97973.31;5052727;28;20188;-75
2023/04/02 11:19:16;;;;;;;0.40;0.40;;;;;;;12.51;83.30;97991.06;5052854;28;20205;-75
2023/04/02 11:21:49;;;;;;;0.40;0.40;;;;;;;11.90;84.63;97982.69;5052527;28;20208;-75
2023/04/02 11:24:31;;;;;;;0.93;0.40;;;;;;;12.21;84.86;97988.50;5052555;28;20243;-75
2023/04/02 11:27:10;;;;;;;0.40;0.40;;;;;;;12.20;85.91;97992.22;5053214;28;20213;-75
2023/04/02 11:29:44;;;;;;;0.30;0.30;;;;;;;12.11;83.73;97995.47;5053491;28;20215;-75
2023/04/02 11:32:23;;;;;;;0.80;0.40;;;;;;;11.99;83.39;98005.28;5052300;28;20239;-75
2023/04/02 11:34:49;;;;;;;0.33;0.33;;;;;;;12.23;83.34;98004.28;5053504;28;20216;-75
2023/04/02 11:37:38;;;;;;;0.40;0.40;;;;;;;11.69;83.39;98001.84;5052807;28;20213;-75
2023/04/02 11:40:43;;;;;;;0.83;0.50;;;;;;;11.71;82.89;98003.25;5052526;28;20197;-75
2023/04/02 11:43:34;;;;;;;0.40;0.40;;;;;;;11.80;83.23;98004.53;5052489;28;20221;-75
2023/04/02 11:46:21;;;;;;;0.83;0.40;;;;;;;11.94;84.53;98005.97;5053274;28;20328;-75
2023/04/02 11:48:48;;;;;;;0.43;0.43;;;;;;;11.55;84.30;98003.88;5050994;28;20201;-75
2023/04/02 11:51:21;;;;;;;0.40;0.40;;;;;;;11.92;85.94;97999.25;5052836;28;20212;-75
2023/04/02 11:53:48;;;;;;;1.50;0.40;;;;;;;12.01;87.08;98006.69;5055682;28;20235;-75
2023/04/02 11:56:38;;;;;;;0.50;0.50;;;;;;;12.09;84.49;98002.88;5056680;28;20201;-75
2023/04/02 11:59:23;;;;;;;0.50;0.50;;;;;;;12.12;85.25;98008.53;5056620;28;20604;-76
2023/04/02 12:02:03;;;;;;;0.50;0.50;;;;;;;12.29;83.24;98008.72;5055177;28;20281;-72
2023/04/02 12:04:43;;;;;;;0.50;0.50;;;;;;;12.68;80.39;98014.16;5055643;28;20185;-76
2023/04/02 12:07:37;;;;;;;1.07;0.57;;;;;;;12.07;85.07;98019.09;5056361;28;20193;-75
2023/04/02 12:10:18;;;;;;;0.50;0.50;;;;;;;12.32;82.37;98018.88;5055756;28;20219;-75
2023/04/02 12:12:44;;;;;;;0.50;0.50;;;;;;;12.36;83.06;98020.06;5056137;28;20235;-75